Time;durP1;ratioP1;P1;durP2;ratioP2;P2;SDS_P1;SDS_P2;PMS_P1;PMS_P2;Temp;Humidity;BMP_temperature;BMP_pressure;BME280_temperature;BME280_humidity;BME280_pressure;Samples;Min_cycle;Max_cycle;Signal;HPM_P1;HPM_P2
2023/06/22 00:01:59;;;;;;;17.10;15.20;;;;;;;20.53;86.64;100224.88;131217;1253;107429;-80
2023/06/22 00:05:06;;;;;;;18.10;16.20;;;;;;;20.53;86.56;100222.99;131277;1256;107535;-79
2023/06/22 00:08:11;;;;;;;17.90;16.00;;;;;;;20.52;86.71;100221.19;131172;1256;109316;-80
2023/06/22 00:11:17;;;;;;;17.20;15.30;;;;;;;20.51;86.89;100222.17;131243;1254;107449;-80
2023/06/22 00:14:23;;;;;;;18.60;16.50;;;;;;;20.51;86.95;100220.92;131120;1255;107520;-80
2023/06/22 00:17:28;;;;;;;16.90;15.30;;;;;;;20.51;86.94;100216.10;131036;1254;107547;-80
2023/06/22 00:20:36;;;;;;;17.00;15.20;;;;;;;20.50;86.67;100216.45;131027;1256;107513;-80
2023/06/22 00:23:43;;;;;;;16.70;14.90;;;;;;;20.47;86.66;100214.83;131206;1256;107233;-80
2023/06/22 00:26:49;;;;;;;14.70;13.20;;;;;;;20.43;86.54;100217.77;131244;1254;107341;-80
2023/06/22 00:29:55;;;;;;;16.30;14.10;;;;;;;20.40;86.38;100220.55;131133;1256;107413;-80
2023/06/22 00:33:01;;;;;;;16.50;14.90;;;;;;;20.36;86.32;100227.79;130922;1254;107299;-80
2023/06/22 00:36:07;;;;;;;17.10;15.40;;;;;;;20.31;86.36;100222.02;131158;1257;107242;-80
2023/06/22 00:39:13;;;;;;;18.00;15.50;;;;;;;20.27;86.35;100225.04;131148;1256;107376;-81
2023/06/22 00:42:19;;;;;;;15.10;13.50;;;;;;;20.24;86.26;100229.11;131235;1255;107488;-81
2023/06/22 00:45:26;;;;;;;14.30;12.80;;;;;;;20.20;86.32;100226.63;131171;1256;107512;-82
2023/06/22 00:48:32;;;;;;;15.30;13.70;;;;;;;20.17;86.38;100228.86;131214;1257;107217;-81
2023/06/22 00:51:45;;;;;;;17.90;16.00;;;;;;;20.16;86.43;100233.50;131023;1255;107522;-81
2023/06/22 00:54:50;;;;;;;;;;;;;;;20.18;87.78;100231.66;131088;1255;107271;-81
2023/06/22 00:57:56;;;;;;;25.90;23.10;;;;;;;20.19;89.20;100225.48;131160;1255;107516;-83
2023/06/22 01:01:02;;;;;;;24.60;22.00;;;;;;;20.22;89.22;100225.08;131221;1251;108683;-81
2023/06/22 01:04:08;;;;;;;23.20;20.80;;;;;;;20.27;89.62;100221.45;130994;1256;107509;-82
2023/06/22 01:07:25;;;;;;;25.90;22.90;;;;;;;20.32;89.75;100221.48;131183;1251;108140;-81
2023/06/22 01:10:41;;;;;;;28.90;25.40;;;;;;;20.38;89.83;100225.31;131124;1256;108608;-81
2023/06/22 01:13:55;;;;;;;29.50;26.40;;;;;;;20.43;91.18;100227.70;131163;1256;107574;-81
2023/06/22 01:17:02;;;;;;;29.10;26.00;;;;;;;20.43;91.19;100237.83;131064;1255;107274;-81
2023/06/22 01:20:12;;;;;;;28.90;25.60;;;;;;;20.45;92.18;100241.98;131221;1256;107469;-81
2023/06/22 01:23:30;;;;;;;28.70;25.60;;;;;;;20.45;92.97;100242.33;131230;1261;107554;-81
2023/06/22 01:26:43;;;;;;;27.90;25.00;;;;;;;20.46;92.47;100241.95;131262;1256;108374;-81
2023/06/22 01:29:49;;;;;;;25.00;22.30;;;;;;;20.48;92.27;100242.02;130953;1268;107513;-81
2023/06/22 01:32:58;;;;;;;27.00;24.00;;;;;;;20.48;91.82;100253.23;131240;1256;107132;-81
2023/06/22 01:36:06;;;;;;;26.10;23.50;;;;;;;20.47;92.27;100254.40;131257;1264;107418;-81
2023/06/22 01:39:12;;;;;;;28.70;25.70;;;;;;;20.49;91.96;100253.80;131200;1256;107481;-81
2023/06/22 01:42:18;;;;;;;27.10;24.20;;;;;;;20.44;93.01;100254.75;131219;1256;106708;-81
2023/06/22 01:45:25;;;;;;;28.00;24.20;;;;;;;20.36;93.30;100255.55;131070;1264;107251;-82
2023/06/22 01:48:32;;;;;;;27.90;25.00;;;;;;;20.28;94.64;100249.94;131304;1257;107203;-81
2023/06/22 01:51:37;;;;;;;29.60;25.70;;;;;;;20.20;95.09;100250.66;131347;1265;107562;-81
2023/06/22 01:54:43;;;;;;;25.70;22.80;;;;;;;20.10;95.91;100252.77;130995;1256;106351;-81
2023/06/22 01:57:49;;;;;;;24.70;21.70;;;;;;;20.06;95.52;100254.80;131158;1261;107546;-81
2023/06/22 02:00:59;;;;;;;26.10;23.30;;;;;;;20.01;96.48;100266.02;130954;1259;107595;-81
2023/06/22 02:04:12;;;;;;;26.50;23.80;;;;;;;19.96;97.54;100264.93;131184;1256;107622;-81
2023/06/22 02:07:22;;;;;;;25.60;23.00;;;;;;;19.91;97.18;100275.11;130852;1256;295062;-82
2023/06/22 02:10:29;;;;;;;25.30;22.50;;;;;;;19.86;98.38;100281.83;131016;1255;107572;-81
2023/06/22 02:13:37;;;;;;;25.70;21.70;;;;;;;19.78;97.91;100275.11;131101;1257;107492;-81
2023/06/22 02:16:44;;;;;;;24.30;21.00;;;;;;;19.76;97.66;100275.15;130901;1257;107641;-81
2023/06/22 02:19:49;;;;;;;23.90;21.40;;;;;;;19.75;97.68;100280.45;131199;1258;107320;-81
2023/06/22 02:22:55;;;;;;;24.20;21.40;;;;;;;19.75;96.40;100283.81;131070;1256;107534;-81
2023/06/22 02:26:02;;;;;;;24.80;21.60;;;;;;;19.79;95.85;100290.02;131174;1251;107617;-81
2023/06/22 02:29:07;;;;;;;21.50;19.20;;;;;;;19.80;95.49;100292.10;131263;1256;107609;-83
2023/06/22 02:32:15;;;;;;;23.00;20.10;;;;;;;19.84;95.30;100296.99;131220;1256;107359;-80
2023/06/22 02:35:21;;;;;;;21.80;19.50;;;;;;;19.87;95.05;100297.54;131213;1261;107228;-81
2023/06/22 02:38:27;;;;;;;23.20;19.90;;;;;;;19.87;95.54;100302.58;130989;1253;107391;-74
2023/06/22 02:41:32;;;;;;;19.50;17.40;;;;;;;19.85;95.69;100314.36;130949;1256;107363;-76
2023/06/22 02:44:38;;;;;;;22.50;19.20;;;;;;;19.86;96.04;100313.62;130984;1261;107367;-75
2023/06/22 02:47:43;;;;;;;21.90;19.60;;;;;;;19.86;95.81;100314.23;130968;1257;107566;-74
2023/06/22 02:50:49;;;;;;;20.20;17.50;;;;;;;19.88;95.38;100318.06;130921;1256;107430;-74
2023/06/22 02:53:57;;;;;;;20.10;18.00;;;;;;;19.93;94.98;100311.69;131065;1257;107746;-74
2023/06/22 02:57:03;;;;;;;21.40;18.90;;;;;;;19.96;95.15;100319.80;130987;1265;107253;-74
2023/06/22 03:00:17;;;;;;;22.50;20.10;;;;;;;19.94;95.74;100321.51;131110;1256;107644;-74
2023/06/22 03:03:26;;;;;;;22.90;19.60;;;;;;;19.91;95.16;100320.80;131078;1257;108596;-75
2023/06/22 03:06:31;;;;;;;20.80;18.30;;;;;;;19.91;95.49;100324.76;130709;1260;107508;-75
2023/06/22 03:09:37;;;;;;;21.80;19.50;;;;;;;19.91;95.12;100328.71;130788;1256;108132;-75
2023/06/22 03:12:43;;;;;;;21.00;18.70;;;;;;;19.91;95.17;100332.85;130792;1260;107597;-74
2023/06/22 03:15:49;;;;;;;20.00;17.30;;;;;;;19.88;96.26;100341.77;130731;1259;107551;-74
2023/06/22 03:18:55;;;;;;;18.40;16.40;;;;;;;19.84;95.53;100350.36;130782;1255;108621;-74
2023/06/22 03:22:01;;;;;;;20.10;17.80;;;;;;;19.83;95.70;100354.23;130518;1258;107589;-74
2023/06/22 03:25:13;;;;;;;20.70;18.40;;;;;;;19.86;95.48;100354.23;130777;1257;107485;-74
2023/06/22 03:28:19;;;;;;;18.90;16.60;;;;;;;19.85;95.77;100358.65;130856;1256;107589;-74
2023/06/22 03:31:25;;;;;;;18.20;16.10;;;;;;;19.84;96.38;100360.94;130783;1267;106529;-74
2023/06/22 03:34:34;;;;;;;18.30;16.30;;;;;;;19.87;96.26;100355.28;130908;1251;107423;-74
2023/06/22 03:37:39;;;;;;;17.60;15.80;;;;;;;19.96;95.79;100365.29;130627;1268;107438;-76
2023/06/22 03:40:45;;;;;;;19.30;17.20;;;;;;;20.09;95.52;100368.30;130802;1257;107516;-75
2023/06/22 03:43:50;;;;;;;18.50;16.20;;;;;;;20.26;95.22;100360.25;130775;1270;107232;-74
2023/06/22 03:46:56;;;;;;;17.40;15.50;;;;;;;20.39;94.62;100367.14;130813;1256;107234;-74
2023/06/22 03:50:03;;;;;;;16.90;15.10;;;;;;;20.57;94.41;100377.84;130783;1266;107518;-74
2023/06/22 03:53:08;;;;;;;17.00;15.30;;;;;;;20.79;94.12;100386.42;130784;1266;107595;-74
2023/06/22 03:56:20;;;;;;;18.80;15.40;;;;;;;20.87;93.55;100385.89;130761;1264;107545;-75
2023/06/22 03:59:26;;;;;;;16.00;14.30;;;;;;;20.84;93.18;100390.77;130853;1267;108132;-74
2023/06/22 04:02:31;;;;;;;17.90;16.10;;;;;;;20.84;93.42;100393.91;130861;1256;107367;-74
2023/06/22 04:05:37;;;;;;;16.90;15.20;;;;;;;20.92;93.12;100396.36;131086;1257;107595;-74
2023/06/22 04:08:42;;;;;;;16.90;14.50;;;;;;;20.99;92.97;100392.66;131054;1265;107497;-74
2023/06/22 04:11:48;;;;;;;16.10;14.00;;;;;;;21.04;92.40;100389.70;131097;1257;107649;-76
2023/06/22 04:14:53;;;;;;;15.80;14.30;;;;;;;21.12;92.08;100388.98;131104;1267;107556;-74
2023/06/22 04:17:59;;;;;;;16.90;15.20;;;;;;;21.19;91.66;100388.34;130972;1261;107492;-74
2023/06/22 04:21:05;;;;;;;15.50;13.80;;;;;;;21.24;91.32;100384.54;130875;1264;108010;-75
2023/06/22 04:24:12;;;;;;;15.40;13.70;;;;;;;21.33;91.30;100385.39;130865;1264;107528;-75
2023/06/22 04:27:19;;;;;;;15.30;13.80;;;;;;;21.44;90.66;100379.89;131123;1257;107648;-75
2023/06/22 04:30:25;;;;;;;15.80;14.10;;;;;;;21.56;90.23;100379.77;130829;1251;108157;-75
2023/06/22 04:33:30;;;;;;;15.90;14.10;;;;;;;21.64;89.61;100380.69;130889;1267;107378;-75
2023/06/22 04:36:39;;;;;;;15.00;12.70;;;;;;;21.64;88.92;100381.03;130912;1264;107503;-75
2023/06/22 04:39:45;;;;;;;13.70;12.30;;;;;;;21.73;89.68;100383.41;130969;1257;107314;-76
2023/06/22 04:42:53;;;;;;;18.20;13.90;;;;;;;21.84;88.42;100383.13;131002;1251;107254;-75
2023/06/22 04:46:03;;;;;;;15.00;13.30;;;;;;;21.90;88.38;100384.13;131101;1256;107569;-75
2023/06/22 04:49:10;;;;;;;14.50;13.00;;;;;;;21.99;88.41;100392.89;130962;1251;107647;-75
2023/06/22 04:52:17;;;;;;;14.80;13.30;;;;;;;22.07;87.98;100393.35;131050;1254;107614;-75
2023/06/22 04:55:25;;;;;;;13.70;12.30;;;;;;;22.09;86.96;100398.84;131094;1266;107314;-75
2023/06/22 04:58:32;;;;;;;13.60;12.30;;;;;;;22.13;86.95;100396.88;131051;1254;105775;-77
2023/06/22 05:01:37;;;;;;;15.20;13.00;;;;;;;22.18;87.31;100400.47;130946;1256;107389;-76
2023/06/22 05:04:43;;;;;;;14.90;13.40;;;;;;;22.25;87.07;100407.34;131026;1256;106590;-76
2023/06/22 05:07:52;;;;;;;13.90;12.40;;;;;;;22.25;85.53;100414.77;130965;1257;107615;-77
2023/06/22 05:10:58;;;;;;;14.60;12.40;;;;;;;22.25;85.65;100413.19;130902;1257;107046;-76
2023/06/22 05:14:04;;;;;;;14.00;12.70;;;;;;;22.23;84.64;100412.00;131043;1252;107600;-75
2023/06/22 05:17:13;;;;;;;13.50;12.20;;;;;;;22.26;85.56;100414.39;130955;1257;106267;-75
2023/06/22 05:20:19;;;;;;;13.40;12.00;;;;;;;22.29;84.51;100424.16;130762;1266;106624;-75
2023/06/22 05:23:24;;;;;;;14.10;12.30;;;;;;;22.22;84.13;100428.30;130831;1256;107547;-76
2023/06/22 05:26:31;;;;;;;14.20;12.10;;;;;;;22.28;85.24;100429.81;130887;1258;107481;-76
2023/06/22 05:29:36;;;;;;;13.40;12.10;;;;;;;22.42;85.10;100425.61;130930;1258;107533;-76
2023/06/22 05:32:44;;;;;;;12.60;11.40;;;;;;;22.56;85.26;100424.05;130888;1253;107515;-75
2023/06/22 05:35:49;;;;;;;13.40;12.00;;;;;;;22.67;84.18;100428.19;130930;1266;107195;-75
2023/06/22 05:38:57;;;;;;;12.30;11.10;;;;;;;22.70;83.39;100434.52;130988;1251;107316;-75
2023/06/22 05:42:04;;;;;;;13.90;12.50;;;;;;;22.79;82.78;100430.14;131053;1257;107627;-76
2023/06/22 05:45:10;;;;;;;14.70;12.00;;;;;;;22.79;81.51;100435.91;130865;1251;107257;-76
2023/06/22 05:48:16;;;;;;;13.90;12.30;;;;;;;22.79;82.96;100436.16;130862;1258;107475;-75
2023/06/22 05:51:21;;;;;;;11.70;10.50;;;;;;;22.83;82.62;100440.25;130853;1258;108018;-76
2023/06/22 05:54:28;;;;;;;11.10;9.90;;;;;;;22.83;81.52;100440.95;130838;1257;107441;-76
2023/06/22 05:57:33;;;;;;;16.40;11.40;;;;;;;22.85;81.74;100440.92;130912;1257;107525;-75
2023/06/22 06:00:39;;;;;;;12.80;11.50;;;;;;;22.92;81.43;100442.94;130821;1266;107569;-75
2023/06/22 06:03:44;;;;;;;12.10;10.70;;;;;;;22.95;80.57;100447.73;131012;1254;107407;-75
2023/06/22 06:06:50;;;;;;;11.20;9.80;;;;;;;23.01;81.45;100447.30;130880;1254;107611;-75
2023/06/22 06:09:55;;;;;;;12.30;10.00;;;;;;;23.11;80.88;100452.37;130925;1257;107512;-76
2023/06/22 06:13:04;;;;;;;12.80;11.10;;;;;;;23.19;80.16;100451.93;130978;1255;107448;-76
2023/06/22 06:16:09;;;;;;;12.10;10.50;;;;;;;23.17;79.35;100445.14;130976;1251;107339;-76
2023/06/22 06:19:14;;;;;;;11.90;10.30;;;;;;;23.20;79.96;100450.45;130938;1257;106516;-76
2023/06/22 06:22:21;;;;;;;12.80;11.50;;;;;;;23.18;78.64;100456.16;130899;1256;107659;-76
2023/06/22 06:25:26;;;;;;;11.00;9.60;;;;;;;23.21;79.94;100452.73;130957;1257;106698;-76
2023/06/22 06:28:32;;;;;;;11.70;8.70;;;;;;;23.32;80.14;100440.04;131004;1264;107520;-75
2023/06/22 06:31:37;;;;;;;11.10;9.40;;;;;;;23.44;79.89;100440.02;130932;1258;107377;-75
2023/06/22 06:34:43;;;;;;;11.00;9.70;;;;;;;23.50;77.64;100442.78;131017;1257;107533;-75
2023/06/22 06:37:50;;;;;;;12.20;9.90;;;;;;;23.47;78.10;100444.71;130882;1254;107261;-75
2023/06/22 06:40:55;;;;;;;10.80;8.80;;;;;;;23.48;78.96;100440.42;131023;1257;106563;-75
2023/06/22 06:44:01;;;;;;;11.90;9.30;;;;;;;23.60;78.84;100438.88;130952;1251;106607;-76
2023/06/22 06:47:07;;;;;;;9.80;8.80;;;;;;;23.64;78.25;100443.44;130907;1251;107502;-75
2023/06/22 06:50:13;;;;;;;9.90;9.00;;;;;;;23.62;78.50;100447.86;130891;1257;107470;-76
2023/06/22 06:53:19;;;;;;;10.70;9.30;;;;;;;23.56;76.60;100455.42;130868;1251;107980;-75
2023/06/22 06:56:25;;;;;;;10.00;9.00;;;;;;;23.44;76.35;100456.73;130925;1264;107513;-76
2023/06/22 06:59:31;;;;;;;10.10;8.60;;;;;;;23.39;75.75;100459.37;130933;1257;107525;-76
2023/06/22 07:02:36;;;;;;;11.70;9.10;;;;;;;23.42;77.04;100458.20;131034;1257;107294;-76
2023/06/22 07:05:42;;;;;;;10.40;9.40;;;;;;;23.48;76.06;100452.74;131203;1257;107534;-75
2023/06/22 07:08:48;;;;;;;9.90;8.90;;;;;;;23.46;75.77;100453.45;130982;1258;107508;-77
2023/06/22 07:11:53;;;;;;;9.30;7.20;;;;;;;23.47;75.49;100452.88;130870;1257;109133;-75
2023/06/22 07:15:04;;;;;;;9.70;7.50;;;;;;;23.47;74.72;100452.39;130956;1266;107537;-75
2023/06/22 07:18:09;;;;;;;10.60;7.10;;;;;;;23.47;73.28;100446.52;130916;1257;107533;-75
2023/06/22 07:21:15;;;;;;;11.10;7.90;;;;;;;23.49;74.01;100452.18;130998;1258;107422;-74
2023/06/22 07:24:20;;;;;;;8.50;7.00;;;;;;;23.55;73.99;100455.91;130874;1265;107508;-74
2023/06/22 07:27:26;;;;;;;7.60;6.00;;;;;;;23.68;74.55;100453.92;130950;1257;107566;-75
2023/06/22 07:30:32;;;;;;;7.10;6.00;;;;;;;23.76;71.04;100457.45;130932;1257;107432;-75
2023/06/22 07:33:38;;;;;;;6.40;5.10;;;;;;;23.72;70.18;100459.48;130922;1257;107502;-75
2023/06/22 07:36:43;;;;;;;6.20;5.40;;;;;;;23.77;72.40;100455.80;130898;1256;106705;-75
2023/06/22 07:39:50;;;;;;;7.90;4.60;;;;;;;23.87;70.70;100457.83;131045;1258;107341;-75
2023/06/22 07:42:55;;;;;;;4.60;4.20;;;;;;;23.98;70.82;100458.34;131146;1257;107349;-75
2023/06/22 07:46:01;;;;;;;6.70;6.10;;;;;;;24.00;67.96;100461.33;131056;1264;107459;-75
2023/06/22 07:49:08;;;;;;;7.10;5.50;;;;;;;23.97;68.94;100459.50;131020;1257;107247;-75
2023/06/22 07:52:13;;;;;;;5.00;4.20;;;;;;;23.94;68.40;100453.10;130958;1251;108103;-75
2023/06/22 07:55:19;;;;;;;4.70;3.00;;;;;;;23.94;66.07;100447.45;130906;1256;107517;-75
2023/06/22 07:58:25;;;;;;;6.80;3.60;;;;;;;24.01;65.36;100446.58;131055;1257;107482;-75
2023/06/22 08:01:30;;;;;;;6.80;5.10;;;;;;;24.07;66.93;100445.23;130918;1264;107241;-75
2023/06/22 08:04:36;;;;;;;5.30;4.80;;;;;;;24.16;65.94;100444.08;131065;1257;107455;-76
2023/06/22 08:07:44;;;;;;;4.00;3.60;;;;;;;24.19;66.18;100439.61;131079;1258;106756;-75
2023/06/22 08:10:50;;;;;;;5.50;3.80;;;;;;;24.28;66.37;100447.67;131046;1251;107478;-74
2023/06/22 08:13:57;;;;;;;3.90;3.50;;;;;;;24.40;66.59;100450.17;130946;1256;107436;-75
2023/06/22 08:17:03;;;;;;;6.00;3.60;;;;;;;24.44;64.98;100444.95;130923;1256;107463;-75
2023/06/22 08:20:11;;;;;;;6.10;3.60;;;;;;;24.49;62.57;100447.55;131043;1257;107715;-75
2023/06/22 08:23:17;;;;;;;5.10;3.40;;;;;;;24.53;62.54;100450.69;131045;1251;107247;-75
2023/06/22 08:26:23;;;;;;;4.30;3.70;;;;;;;24.58;61.90;100451.88;131076;1257;106417;-75
2023/06/22 08:29:28;;;;;;;4.20;3.40;;;;;;;24.63;62.83;100451.55;130968;1258;106745;-75
2023/06/22 08:32:34;;;;;;;4.50;3.60;;;;;;;24.68;59.78;100453.89;130963;1254;107521;-75
2023/06/22 08:35:39;;;;;;;3.30;2.70;;;;;;;24.63;56.65;100453.19;131024;1251;107356;-76
2023/06/22 08:38:50;;;;;;;3.10;2.80;;;;;;;24.63;57.23;100454.34;130921;1257;107514;-75
2023/06/22 08:41:55;;;;;;;5.30;2.60;;;;;;;24.71;56.30;100455.31;130957;1251;107150;-74
2023/06/22 08:45:01;;;;;;;4.20;2.60;;;;;;;24.76;56.42;100457.70;130961;1257;107635;-75
2023/06/22 08:48:07;;;;;;;5.00;3.00;;;;;;;24.80;57.23;100454.95;130942;1256;106560;-75
2023/06/22 08:51:13;;;;;;;4.70;2.70;;;;;;;24.84;56.16;100464.02;130921;1251;107507;-76
2023/06/22 08:54:19;;;;;;;3.30;2.90;;;;;;;24.86;55.58;100465.27;130935;1264;106789;-75
2023/06/22 08:57:24;;;;;;;2.70;2.50;;;;;;;24.84;52.71;100469.81;130917;1256;107513;-75
2023/06/22 09:00:32;;;;;;;6.50;2.80;;;;;;;24.84;53.60;100464.09;131045;1256;107613;-75
2023/06/22 09:03:38;;;;;;;4.50;3.10;;;;;;;24.86;52.54;100468.60;130945;1256;107464;-74
2023/06/22 09:06:46;;;;;;;4.20;3.10;;;;;;;24.87;53.07;100474.41;130982;1254;107500;-76
2023/06/22 09:09:51;;;;;;;3.60;3.10;;;;;;;24.90;54.15;100468.58;130974;1257;107557;-75
2023/06/22 09:12:57;;;;;;;6.70;3.80;;;;;;;24.98;53.73;100467.30;130912;1264;107492;-75
2023/06/22 09:16:03;;;;;;;4.70;3.10;;;;;;;25.08;54.47;100467.49;130950;1258;107525;-75
2023/06/22 09:19:11;;;;;;;7.00;3.60;;;;;;;25.20;53.41;100467.69;131032;1256;107929;-75
2023/06/22 09:22:16;;;;;;;4.30;3.60;;;;;;;25.30;54.31;100470.55;130972;1257;107480;-75
2023/06/22 09:25:22;;;;;;;5.30;3.40;;;;;;;25.38;53.02;100472.16;131024;1256;107553;-75
2023/06/22 09:28:27;;;;;;;5.20;3.60;;;;;;;25.43;52.25;100474.57;130964;1251;107502;-75
2023/06/22 09:31:33;;;;;;;3.90;3.50;;;;;;;25.44;51.04;100473.83;130875;1256;107418;-75
2023/06/22 09:34:39;;;;;;;3.80;3.30;;;;;;;25.42;49.69;100474.92;130867;1255;107499;-75
2023/06/22 09:37:45;;;;;;;4.30;3.00;;;;;;;25.39;48.93;100477.16;130891;1256;107380;-74
2023/06/22 09:40:50;;;;;;;3.60;3.10;;;;;;;25.44;51.08;100479.55;130890;1251;107241;-75
2023/06/22 09:43:56;;;;;;;4.30;3.10;;;;;;;25.54;49.26;100477.69;130964;1264;106747;-75
2023/06/22 09:47:02;;;;;;;4.70;3.30;;;;;;;25.56;49.33;100473.95;130940;1256;107401;-75
2023/06/22 09:50:09;;;;;;;4.10;2.90;;;;;;;25.60;49.37;100472.45;130925;1256;107262;-75
2023/06/22 09:53:14;;;;;;;4.10;3.00;;;;;;;25.68;50.77;100463.83;131044;1253;107146;-74
2023/06/22 09:56:20;;;;;;;3.90;3.30;;;;;;;25.76;48.62;100462.38;130979;1256;107390;-75
2023/06/22 09:59:25;;;;;;;4.40;3.00;;;;;;;25.80;49.66;100450.67;130993;1251;107376;-75
2023/06/22 10:02:31;;;;;;;3.40;2.80;;;;;;;25.86;48.56;100446.73;130933;1257;107505;-76
2023/06/22 10:05:36;;;;;;;8.30;3.10;;;;;;;25.89;48.42;100450.38;131089;1256;106586;-76
2023/06/22 10:08:42;;;;;;;7.80;3.10;;;;;;;25.91;48.43;100448.30;131045;1253;107257;-74
2023/06/22 10:11:48;;;;;;;3.10;2.80;;;;;;;25.91;46.81;100445.72;130991;1256;107254;-74
2023/06/22 10:14:53;;;;;;;4.40;3.40;;;;;;;25.94;48.21;100443.11;130979;1257;107522;-75
2023/06/22 10:17:59;;;;;;;3.40;3.10;;;;;;;25.98;47.84;100444.81;130979;1256;107429;-74
2023/06/22 10:21:04;;;;;;;3.00;2.60;;;;;;;26.03;49.66;100434.66;130981;1256;107506;-74
2023/06/22 10:24:10;;;;;;;4.10;3.00;;;;;;;26.08;48.58;100439.92;130855;1253;107461;-74
2023/06/22 10:27:20;;;;;;;5.90;3.70;;;;;;;26.09;48.73;100436.92;130993;1251;107436;-77
2023/06/22 10:30:32;;;;;;;3.70;3.10;;;;;;;26.12;47.96;100444.53;130698;1261;107999;-75
2023/06/22 10:33:38;;;;;;;3.30;2.60;;;;;;;26.17;48.36;100440.60;130919;1254;107972;-75
2023/06/22 10:36:46;;;;;;;3.60;2.70;;;;;;;26.23;46.45;100441.29;130874;1254;107542;-75
2023/06/22 10:39:51;;;;;;;3.50;2.90;;;;;;;26.21;45.49;100445.38;130996;1251;107337;-75
2023/06/22 10:42:57;;;;;;;3.00;2.70;;;;;;;26.18;44.34;100441.66;131034;1256;107850;-75
2023/06/22 10:46:02;;;;;;;4.50;2.30;;;;;;;26.23;45.82;100433.95;130894;1264;107495;-75
2023/06/22 10:49:08;;;;;;;3.20;2.70;;;;;;;26.29;46.44;100429.98;130880;1251;107104;-75
2023/06/22 10:52:13;;;;;;;3.20;2.80;;;;;;;26.39;45.26;100433.95;130954;1255;107543;-75
2023/06/22 10:55:19;;;;;;;5.00;2.50;;;;;;;26.39;44.75;100431.71;130989;1256;107554;-75
2023/06/22 10:58:25;;;;;;;3.80;3.30;;;;;;;26.45;45.77;100426.08;131037;1256;107532;-75
2023/06/22 11:01:33;;;;;;;4.50;2.70;;;;;;;26.55;46.12;100424.41;130907;1256;107528;-75
2023/06/22 11:04:39;;;;;;;2.90;2.50;;;;;;;26.68;46.12;100424.41;131104;1251;107254;-75
2023/06/22 11:07:49;;;;;;;2.90;2.60;;;;;;;26.76;45.28;100430.65;130969;1251;109302;-75
2023/06/22 11:10:55;;;;;;;3.10;2.80;;;;;;;26.77;45.31;100418.45;131060;1256;107838;-74
2023/06/22 11:14:00;;;;;;;3.00;2.70;;;;;;;26.80;44.54;100421.86;131069;1255;107533;-74
2023/06/22 11:17:06;;;;;;;4.70;3.00;;;;;;;26.82;43.51;100429.89;130879;1256;107355;-75
2023/06/22 11:20:13;;;;;;;3.10;2.80;;;;;;;26.78;42.89;100431.21;130957;1256;107550;-75
2023/06/22 11:23:19;;;;;;;4.80;3.20;;;;;;;26.74;43.22;100431.48;130854;1256;107480;-76
2023/06/22 11:26:25;;;;;;;5.60;2.80;;;;;;;26.77;44.09;100432.52;130896;1257;107364;-76
2023/06/22 11:29:30;;;;;;;3.30;3.00;;;;;;;26.82;43.01;100428.30;130971;1256;107592;-76
2023/06/22 11:32:38;;;;;;;3.70;3.10;;;;;;;26.86;43.72;100427.53;130928;1251;108171;-75
2023/06/22 11:35:45;;;;;;;3.20;2.90;;;;;;;26.92;43.36;100424.69;130952;1251;107261;-76
2023/06/22 11:38:51;;;;;;;3.80;3.10;;;;;;;26.95;42.49;100421.96;130892;1256;107455;-76
2023/06/22 11:41:57;;;;;;;3.40;3.10;;;;;;;26.94;42.21;100413.04;130939;1251;107134;-76
2023/06/22 11:45:04;;;;;;;3.60;2.80;;;;;;;26.95;43.17;100398.20;131050;1256;107965;-76
2023/06/22 11:48:10;;;;;;;3.50;2.80;;;;;;;27.05;43.87;100397.00;130944;1253;107439;-75
2023/06/22 11:51:17;;;;;;;3.30;2.80;;;;;;;27.11;42.11;100402.96;130969;1256;107491;-76
2023/06/22 11:54:23;;;;;;;3.10;2.80;;;;;;;27.04;40.80;100403.50;131096;1256;107398;-76
2023/06/22 11:57:28;;;;;;;4.00;2.70;;;;;;;27.05;42.39;100396.33;131017;1251;107562;-75
2023/06/22 12:00:34;;;;;;;3.30;3.00;;;;;;;27.11;42.85;100389.39;131016;1256;107554;-76
2023/06/22 12:03:39;;;;;;;5.40;3.20;;;;;;;27.11;41.42;100389.33;131171;1251;107531;-76
2023/06/22 12:06:45;;;;;;;4.00;3.10;;;;;;;27.08;41.12;100391.44;130903;1254;107893;-75
2023/06/22 12:09:50;;;;;;;3.00;2.60;;;;;;;27.08;41.50;100391.98;131052;1256;107542;-75
2023/06/22 12:12:57;;;;;;;3.30;2.50;;;;;;;27.11;41.65;100382.75;130937;1254;107507;-75
2023/06/22 12:16:05;;;;;;;2.90;2.30;;;;;;;27.16;39.93;100387.62;130939;1254;107497;-75
2023/06/22 12:19:11;;;;;;;2.80;2.30;;;;;;;27.11;39.76;100385.32;130945;1256;107340;-75
2023/06/22 12:22:17;;;;;;;2.70;2.10;;;;;;;27.17;38.75;100390.20;130887;1256;107417;-76
2023/06/22 12:25:22;;;;;;;5.70;2.50;;;;;;;27.26;39.91;100386.63;130868;1256;107523;-76
2023/06/22 12:28:28;;;;;;;4.80;2.40;;;;;;;27.28;39.82;100385.77;130916;1253;107683;-76
2023/06/22 12:31:33;;;;;;;2.80;2.40;;;;;;;27.23;39.59;100386.85;130855;1256;107540;-78
2023/06/22 12:34:39;;;;;;;3.00;2.40;;;;;;;27.28;39.14;100386.39;130936;1254;107418;-75
2023/06/22 12:37:45;;;;;;;3.20;2.70;;;;;;;27.28;39.45;100386.72;130955;1260;105971;-76
2023/06/22 12:40:50;;;;;;;2.60;2.40;;;;;;;27.31;39.87;100394.30;130887;1256;107602;-75
2023/06/22 12:43:55;;;;;;;3.20;2.60;;;;;;;27.34;38.58;100393.12;130965;1251;108691;-76
2023/06/22 12:47:01;;;;;;;3.20;2.60;;;;;;;27.29;38.81;100398.06;130920;1251;107451;-76
2023/06/22 12:50:08;;;;;;;3.90;2.60;;;;;;;27.28;39.05;100395.05;130887;1255;107514;-76
2023/06/22 12:53:14;;;;;;;3.10;2.60;;;;;;;27.30;39.53;100389.80;131070;1257;107492;-76
2023/06/22 12:56:19;;;;;;;3.30;2.40;;;;;;;27.37;40.49;100380.92;131065;1256;107518;-76
2023/06/22 12:59:25;;;;;;;2.80;2.50;;;;;;;27.44;40.41;100377.41;130915;1256;107450;-78
2023/06/22 13:02:30;;;;;;;2.70;2.50;;;;;;;27.51;40.60;100370.30;130892;1256;107417;-76
2023/06/22 13:05:36;;;;;;;4.80;2.70;;;;;;;27.50;40.06;100363.43;131061;1253;107236;-76
2023/06/22 13:08:42;;;;;;;4.30;3.00;;;;;;;27.51;40.46;100357.02;131066;1253;107429;-76
2023/06/22 13:11:47;;;;;;;3.80;2.80;;;;;;;27.50;40.31;100364.25;130985;1256;107491;-75
2023/06/22 13:14:53;;;;;;;3.90;2.90;;;;;;;27.53;40.78;100358.50;131053;1256;107435;-75
2023/06/22 13:18:00;;;;;;;3.10;2.80;;;;;;;27.56;41.15;100356.35;130880;1258;108686;-75
2023/06/22 13:21:06;;;;;;;3.90;3.30;;;;;;;27.56;41.14;100360.13;131034;1256;107541;-75
2023/06/22 13:24:11;;;;;;;4.00;3.10;;;;;;;27.49;40.77;100359.04;130950;1256;107482;-75
2023/06/22 13:27:17;;;;;;;3.90;3.10;;;;;;;27.45;40.67;100361.81;130976;1257;107362;-75
2023/06/22 13:30:22;;;;;;;4.10;2.70;;;;;;;27.42;40.64;100357.67;131029;1256;107635;-75
2023/06/22 13:33:28;;;;;;;3.40;3.10;;;;;;;27.48;40.96;100356.79;130947;1253;107485;-75
2023/06/22 13:36:33;;;;;;;5.20;3.20;;;;;;;27.50;41.35;100361.40;130969;1256;107413;-75
2023/06/22 13:39:38;;;;;;;3.80;2.60;;;;;;;27.50;39.29;100356.96;130951;1256;107837;-75
2023/06/22 13:42:44;;;;;;;2.90;2.60;;;;;;;27.53;40.60;100353.14;130935;1256;107341;-76
2023/06/22 13:45:49;;;;;;;3.30;3.00;;;;;;;27.53;39.57;100358.52;131126;1251;107485;-75
2023/06/22 13:48:55;;;;;;;6.70;3.40;;;;;;;27.47;40.03;100361.55;130937;1256;107452;-75
2023/06/22 13:52:03;;;;;;;3.60;2.70;;;;;;;27.44;39.62;100353.29;131056;1253;107489;-75
2023/06/22 13:55:10;;;;;;;3.00;2.50;;;;;;;27.40;39.11;100352.39;131029;1251;107170;-75
2023/06/22 13:58:16;;;;;;;3.10;2.60;;;;;;;27.36;38.80;100355.61;131149;1252;107272;-76